createdAt,value
2022-09-20T00:01:08.441Z,10.47
2022-09-20T00:03:37.568Z,10.53
2022-09-20T00:06:09.078Z,10.54
2022-09-20T00:08:37.288Z,10.54
2022-09-20T00:11:07.214Z,10.53
2022-09-20T00:13:36.556Z,10.51
2022-09-20T00:16:07.286Z,10.49
2022-09-20T00:18:35.512Z,10.52
2022-09-20T00:21:04.113Z,10.53
2022-09-20T00:23:33.839Z,10.56
2022-09-20T00:26:03.498Z,10.58
2022-09-20T00:28:33.687Z,10.55
2022-09-20T00:31:02.198Z,10.52
2022-09-20T00:33:50.450Z,10.52
2022-09-20T00:36:17.410Z,10.52
2022-09-20T00:38:46.668Z,10.49
2022-09-20T00:41:16.125Z,10.46
2022-09-20T00:43:45.730Z,10.45
2022-09-20T00:46:21.865Z,10.47
2022-09-20T00:48:50.964Z,10.49
2022-09-20T00:51:24.975Z,10.50
2022-09-20T00:53:56.832Z,10.51
2022-09-20T00:56:28.428Z,10.53
2022-09-20T00:59:01.027Z,10.57
2022-09-20T01:01:29.011Z,10.57
2022-09-20T01:03:57.382Z,10.57
2022-09-20T01:06:25.372Z,10.56
2022-09-20T01:08:56.230Z,10.58
2022-09-20T01:11:24.207Z,10.58
2022-09-20T01:13:52.053Z,10.58
2022-09-20T01:16:20.544Z,10.57
2022-09-20T01:18:49.535Z,10.59
2022-09-20T01:21:18.636Z,10.58
2022-09-20T01:23:55.635Z,10.56
2022-09-20T01:26:47.281Z,10.53
2022-09-20T01:29:27.793Z,10.50
2022-09-20T01:31:58.212Z,10.54
2022-09-20T01:34:29.894Z,10.53
2022-09-20T01:37:02.675Z,10.57
2022-09-20T01:39:36.182Z,10.58
2022-09-20T01:42:07.538Z,10.59
2022-09-20T01:44:40.602Z,10.58
2022-09-20T01:47:13.208Z,10.59
2022-09-20T01:49:48.084Z,10.59
2022-09-20T01:53:02.206Z,10.61
2022-09-20T01:55:48.520Z,10.61
2022-09-20T01:58:50.516Z,10.58
2022-09-20T02:01:43.353Z,10.59
2022-09-20T02:04:29.658Z,10.60
2022-09-20T02:07:10.538Z,10.63
2022-09-20T02:09:52.174Z,10.62
2022-09-20T02:12:51.260Z,10.65
2022-09-20T02:15:36.475Z,10.64
2022-09-20T02:18:17.331Z,10.63
2022-09-20T02:20:52.025Z,10.66
2022-09-20T02:23:35.433Z,10.66
2022-09-20T02:26:24.502Z,10.65
2022-09-20T02:29:01.416Z,10.65
2022-09-20T02:31:38.247Z,10.67
2022-09-20T02:34:24.164Z,10.58
2022-09-20T02:37:00.825Z,10.61
2022-09-20T02:39:35.417Z,10.61
2022-09-20T02:42:06.158Z,10.60
2022-09-20T02:44:48.671Z,10.62
2022-09-20T02:47:24.274Z,10.63
2022-09-20T02:50:04.663Z,10.65
2022-09-20T02:52:37.728Z,10.67
2022-09-20T02:55:10.910Z,10.63
2022-09-20T02:57:46.552Z,10.65
2022-09-20T03:00:16.384Z,10.61
2022-09-20T03:02:52.360Z,10.59
2022-09-20T03:05:27.005Z,10.59
2022-09-20T03:08:04.143Z,10.57
2022-09-20T03:10:39.143Z,10.58
2022-09-20T03:13:22.229Z,10.56
2022-09-20T03:15:59.523Z,10.54
2022-09-20T03:18:36.566Z,10.58
2022-09-20T03:21:16.913Z,10.59
2022-09-20T03:23:54.913Z,10.56
2022-09-20T03:26:33.590Z,10.58
2022-09-20T03:29:05.289Z,10.59
2022-09-20T03:32:00.301Z,10.60
2022-09-20T03:34:38.665Z,10.66
2022-09-20T03:37:30.340Z,10.56
2022-09-20T03:40:13.353Z,10.54
2022-09-20T03:42:46.200Z,10.56
2022-09-20T03:45:36.710Z,10.51
2022-09-20T03:48:27.119Z,10.54
2022-09-20T03:51:23.988Z,10.51
2022-09-20T03:54:19.943Z,10.53
2022-09-20T03:57:00.439Z,10.58
2022-09-20T03:59:49.126Z,10.59
2022-09-20T04:02:30.195Z,10.57
2022-09-20T04:05:00.653Z,10.57
2022-09-20T04:07:37.785Z,10.57
2022-09-20T04:10:30.740Z,10.54
2022-09-20T04:13:09.241Z,10.52
2022-09-20T04:15:46.206Z,10.52
2022-09-20T04:18:21.659Z,10.54
2022-09-20T04:20:53.990Z,10.54
2022-09-20T04:23:35.096Z,10.52
2022-09-20T04:26:04.940Z,10.51
2022-09-20T04:28:38.104Z,10.47
2022-09-20T04:31:13.744Z,10.49
2022-09-20T04:33:47.166Z,10.40
2022-09-20T04:36:30.490Z,10.34
2022-09-20T04:39:12.118Z,10.31
2022-09-20T04:41:57.910Z,10.36
2022-09-20T04:44:45.995Z,10.34
2022-09-20T04:47:33.065Z,10.38
2022-09-20T04:50:26.681Z,10.31
2022-09-20T04:53:25.913Z,10.24
2022-09-20T04:55:57.301Z,10.23
2022-09-20T04:58:40.706Z,10.15
2022-09-20T05:01:33.415Z,10.17
2022-09-20T05:04:47.440Z,10.11
2022-09-20T05:07:50.759Z,10.04
2022-09-20T05:10:42.194Z,10.03
2022-09-20T05:13:15.913Z,10.00
2022-09-20T05:15:53.068Z,9.91
2022-09-20T05:19:04.056Z,9.94
2022-09-20T05:21:51.694Z,9.85
2022-09-20T05:24:33.096Z,9.84
2022-09-20T05:27:13.937Z,9.91
2022-09-20T05:29:49.175Z,9.83
2022-09-20T05:32:24.002Z,9.83
2022-09-20T05:34:56.012Z,9.87
2022-09-20T05:37:32.038Z,9.97
2022-09-20T05:40:04.508Z,9.97
2022-09-20T05:42:39.277Z,9.93
2022-09-20T05:45:21.643Z,9.93
2022-09-20T05:47:56.750Z,9.90
2022-09-20T05:50:35.786Z,9.90
2022-09-20T05:53:12.342Z,9.89
2022-09-20T05:56:04.638Z,9.92
2022-09-20T05:58:48.964Z,9.99
2022-09-20T06:01:21.443Z,10.00
2022-09-20T06:03:55.926Z,10.02
2022-09-20T06:06:32.690Z,10.08
2022-09-20T06:09:31.936Z,10.07
2022-09-20T06:12:08.986Z,10.07
2022-09-20T06:14:47.440Z,10.10
2022-09-20T06:17:24.742Z,10.13
2022-09-20T06:20:05.973Z,10.14
2022-09-20T06:22:35.799Z,10.11
2022-09-20T06:25:11.805Z,10.15
2022-09-20T06:27:44.372Z,10.13
2022-09-20T06:30:18.926Z,10.18
2022-09-20T06:32:57.824Z,10.12
2022-09-20T06:35:32.293Z,10.16
2022-09-20T06:38:25.137Z,10.14
2022-09-20T06:41:16.285Z,10.16
2022-09-20T06:43:44.372Z,10.16
2022-09-20T06:46:13.043Z,10.15
2022-09-20T06:48:41.167Z,10.19
2022-09-20T06:51:11.128Z,10.28
2022-09-20T06:53:41.878Z,10.25
2022-09-20T06:56:11.507Z,10.32
2022-09-20T06:58:39.416Z,10.35
2022-09-20T07:01:07.401Z,10.31
2022-09-20T07:03:35.249Z,10.30
2022-09-20T07:06:04.498Z,10.32
2022-09-20T07:08:35.099Z,10.31
2022-09-20T07:11:09.175Z,10.40
2022-09-20T07:13:37.566Z,10.44
2022-09-20T07:16:07.682Z,10.42
2022-09-20T07:18:36.288Z,10.54
2022-09-20T07:21:06.310Z,10.53
2022-09-20T07:23:36.136Z,10.54
2022-09-20T07:26:04.277Z,10.54
2022-09-20T07:28:33.927Z,10.56
2022-09-20T07:31:01.781Z,10.60
2022-09-20T07:33:29.722Z,10.57
2022-09-20T07:35:57.626Z,10.55
2022-09-20T07:38:25.573Z,10.55
2022-09-20T07:40:59.799Z,10.72
2022-09-20T07:43:28.297Z,10.81
2022-09-20T07:45:58.099Z,11.00
2022-09-20T07:48:28.237Z,11.07
2022-09-20T07:50:57.397Z,11.16
2022-09-20T07:53:25.357Z,11.05
2022-09-20T07:56:02.981Z,11.09
2022-09-20T07:58:34.026Z,11.29
2022-09-20T08:01:04.169Z,11.35
2022-09-20T08:03:33.282Z,11.29
2022-09-20T08:06:02.153Z,11.19
2022-09-20T08:08:32.810Z,11.37
2022-09-20T08:11:06.754Z,11.61
2022-09-20T08:16:25.968Z,11.69
2022-09-20T08:18:57.296Z,11.80
2022-09-20T08:21:27.261Z,11.72
2022-09-20T08:23:55.284Z,11.72
2022-09-20T08:26:25.732Z,11.68
2022-09-20T08:28:54.681Z,11.67
2022-09-20T08:31:24.587Z,11.83
2022-09-20T08:33:54.254Z,11.97
2022-09-20T08:36:24.777Z,11.96
2022-09-20T08:41:46.066Z,11.98
2022-09-20T08:44:18.417Z,12.01
2022-09-20T08:46:48.942Z,11.95
2022-09-20T08:49:22.958Z,11.92
2022-09-20T08:51:52.057Z,12.05
2022-09-20T08:54:20.058Z,12.15
2022-09-20T08:56:51.214Z,12.34
2022-09-20T08:59:21.109Z,12.51
2022-09-20T09:01:49.871Z,12.87
2022-09-20T09:04:21.448Z,13.00
2022-09-20T09:06:50.033Z,13.04
2022-09-20T09:09:20.808Z,13.04
2022-09-20T09:11:50.445Z,13.19
2022-09-20T09:14:43.471Z,13.20
2022-09-20T09:17:12.963Z,13.19
2022-09-20T09:19:46.243Z,13.35
2022-09-20T09:22:20.866Z,13.35
2022-09-20T09:25:09.914Z,13.34
2022-09-20T09:27:51.807Z,13.37
2022-09-20T09:30:22.834Z,13.20
2022-09-20T09:32:51.019Z,13.39
2022-09-20T09:35:26.699Z,13.42
2022-09-20T09:37:57.505Z,13.56
2022-09-20T09:40:26.135Z,13.63
2022-09-20T09:42:57.565Z,13.65
2022-09-20T09:45:29.295Z,13.54
2022-09-20T09:47:58.977Z,13.65
2022-09-20T09:50:30.503Z,13.85
2022-09-20T09:53:03.030Z,14.02
2022-09-20T09:55:54.113Z,14.38
2022-09-20T09:58:32.361Z,14.21
2022-09-20T10:01:02.557Z,14.07
2022-09-20T10:03:39.461Z,14.00
2022-09-20T10:06:14.701Z,13.85
2022-09-20T10:08:51.083Z,13.72
2022-09-20T10:11:28.686Z,13.58
2022-09-20T10:14:03.649Z,13.48
2022-09-20T10:16:39.109Z,13.43
2022-09-20T10:19:11.603Z,13.49
2022-09-20T10:21:45.222Z,13.59
2022-09-20T10:24:21.234Z,13.72
2022-09-20T10:27:03.575Z,14.00
2022-09-20T10:29:46.384Z,14.36
2022-09-20T10:32:26.513Z,14.39
2022-09-20T10:35:09.491Z,14.50
2022-09-20T10:37:49.592Z,14.40
2022-09-20T10:40:26.522Z,14.33
2022-09-20T10:43:17.122Z,14.26
2022-09-20T10:48:49.730Z,14.17
2022-09-20T10:51:26.343Z,14.11
2022-09-20T10:54:02.437Z,14.16
2022-09-20T10:56:33.537Z,14.14
2022-09-20T10:59:23.806Z,14.08
2022-09-20T11:02:03.515Z,14.12
2022-09-20T11:04:41.254Z,14.17
2022-09-20T11:07:13.545Z,14.17
2022-09-20T11:09:45.087Z,14.07
2022-09-20T11:12:17.188Z,14.12
2022-09-20T11:14:49.986Z,14.15
2022-09-20T11:17:25.043Z,14.15
2022-09-20T11:19:57.554Z,14.29
2022-09-20T11:22:32.945Z,14.58
2022-09-20T11:25:05.251Z,14.81
2022-09-20T11:27:35.889Z,14.98
2022-09-20T11:30:08.455Z,15.07
2022-09-20T11:32:42.356Z,15.26
2022-09-20T11:35:23.328Z,15.33
2022-09-20T11:37:55.365Z,15.39
2022-09-20T11:40:27.954Z,15.43
2022-09-20T11:42:58.186Z,15.58
2022-09-20T11:45:28.549Z,15.75
2022-09-20T11:48:00.069Z,15.86
2022-09-20T11:51:12.770Z,16.00
2022-09-20T11:53:59.345Z,16.09
2022-09-20T11:56:28.631Z,15.95
2022-09-20T11:58:57.690Z,15.72
2022-09-20T12:01:28.909Z,15.45
2022-09-20T12:04:14.556Z,15.21
2022-09-20T12:06:48.013Z,15.08
2022-09-20T12:09:24.728Z,15.05
2022-09-20T12:11:53.509Z,15.01
2022-09-20T12:14:25.570Z,14.92
2022-09-20T12:16:54.374Z,14.92
2022-09-20T12:19:40.146Z,14.99
2022-09-20T12:22:29.668Z,15.08
2022-09-20T12:25:34.864Z,15.14
2022-09-20T12:28:05.572Z,15.29
2022-09-20T12:30:33.960Z,15.37
2022-09-20T12:33:02.304Z,15.29
2022-09-20T12:36:16.204Z,15.16
2022-09-20T12:38:49.784Z,15.28
2022-09-20T12:41:28.178Z,15.45
2022-09-20T12:44:00.025Z,15.44
2022-09-20T12:46:33.130Z,15.44
2022-09-20T12:50:00.649Z,15.36
2022-09-20T12:52:54.070Z,15.34
2022-09-20T12:55:38.426Z,14.99
2022-09-20T12:58:11.099Z,14.77
2022-09-20T13:00:42.703Z,14.59
2022-09-20T13:03:28.471Z,14.50
2022-09-20T13:06:25.260Z,14.39
2022-09-20T13:09:09.428Z,14.31
2022-09-20T13:11:41.166Z,14.35
2022-09-20T13:14:13.742Z,14.41
2022-09-20T13:16:49.055Z,14.46
2022-09-20T13:19:19.500Z,14.38
2022-09-20T13:21:54.893Z,14.43
2022-09-20T13:24:27.017Z,14.38
2022-09-20T13:27:02.650Z,14.40
2022-09-20T13:29:34.895Z,14.74
2022-09-20T13:32:18.000Z,14.84
2022-09-20T13:34:48.158Z,14.87
2022-09-20T13:37:21.967Z,14.95
2022-09-20T13:39:57.940Z,15.16
2022-09-20T13:42:26.383Z,15.37
2022-09-20T13:44:54.212Z,15.62
2022-09-20T13:47:26.726Z,15.83
2022-09-20T13:49:55.857Z,15.90
2022-09-20T13:52:25.666Z,15.88
2022-09-20T13:54:56.355Z,15.71
2022-09-20T13:57:27.632Z,15.55
2022-09-20T13:59:57.166Z,15.39
2022-09-20T14:02:28.508Z,15.23
2022-09-20T14:04:57.839Z,15.10
2022-09-20T14:07:28.142Z,14.99
2022-09-20T14:09:58.999Z,14.90
2022-09-20T14:12:28.135Z,14.84
2022-09-20T14:14:56.352Z,14.85
2022-09-20T14:17:25.815Z,14.83
2022-09-20T14:19:55.625Z,14.87
2022-09-20T14:22:27.136Z,14.84
2022-09-20T14:25:02.836Z,14.92
2022-09-20T14:27:33.806Z,14.90
2022-09-20T14:30:03.848Z,14.81
2022-09-20T14:32:40.845Z,14.71
2022-09-20T14:35:17.492Z,14.69
2022-09-20T14:37:48.235Z,14.61
2022-09-20T14:40:25.673Z,14.59
2022-09-20T14:42:57.324Z,14.53
2022-09-20T14:45:31.573Z,14.41
2022-09-20T14:48:09.575Z,14.43
2022-09-20T14:50:40.268Z,14.34
2022-09-20T14:53:26.673Z,14.26
2022-09-20T14:56:08.949Z,14.23
2022-09-20T14:59:10.257Z,14.22
2022-09-20T15:01:41.216Z,14.15
2022-09-20T15:04:10.842Z,14.14
2022-09-20T15:06:40.152Z,14.15
2022-09-20T15:09:08.242Z,14.11
2022-09-20T15:11:37.542Z,14.08
2022-09-20T15:14:05.858Z,14.03
2022-09-20T15:16:34.764Z,14.02
2022-09-20T15:19:02.828Z,13.97
2022-09-20T15:21:30.656Z,14.00
2022-09-20T15:23:58.465Z,14.07
2022-09-20T15:26:26.293Z,14.09
2022-09-20T15:28:55.871Z,14.23
2022-09-20T15:31:23.716Z,14.40
2022-09-20T15:33:51.756Z,14.43
2022-09-20T15:36:19.707Z,14.53
2022-09-20T15:38:47.648Z,14.54
2022-09-20T15:41:15.638Z,14.63
2022-09-20T15:43:44.160Z,14.64
2022-09-20T15:46:20.981Z,14.67
2022-09-20T15:48:49.130Z,14.66
2022-09-20T15:51:17.632Z,14.67
2022-09-20T15:53:46.915Z,14.63
2022-09-20T15:56:17.538Z,14.63
2022-09-20T15:58:47.347Z,14.64
2022-09-20T16:01:16.758Z,14.63
2022-09-20T16:03:46.941Z,14.56
2022-09-20T16:06:15.018Z,14.62
2022-09-20T16:08:44.053Z,14.61
2022-09-20T16:11:14.466Z,14.61
2022-09-20T16:13:42.712Z,14.61
2022-09-20T16:16:13.158Z,14.60
2022-09-20T16:19:00.161Z,14.66
2022-09-20T16:21:29.706Z,14.63
2022-09-20T16:23:58.582Z,14.60
2022-09-20T16:26:27.576Z,14.60
2022-09-20T16:28:56.383Z,14.58
2022-09-20T16:31:39.975Z,14.48
2022-09-20T16:34:12.768Z,14.44
2022-09-20T16:36:43.448Z,14.37
2022-09-20T16:39:12.029Z,14.19
2022-09-20T16:41:40.688Z,14.12
2022-09-20T16:44:08.807Z,14.00
2022-09-20T16:46:37.442Z,14.01
2022-09-20T16:49:07.252Z,13.85
2022-09-20T16:51:37.078Z,13.89
2022-09-20T16:54:10.811Z,13.76
2022-09-20T16:56:39.796Z,13.71
2022-09-20T16:59:09.228Z,13.65
2022-09-20T17:01:38.218Z,13.62
2022-09-20T17:04:06.788Z,13.53
2022-09-20T17:06:35.633Z,13.48
2022-09-20T17:09:03.816Z,13.46
2022-09-20T17:11:34.664Z,13.40
2022-09-20T17:14:02.898Z,13.35
2022-09-20T17:16:32.133Z,13.34
2022-09-20T17:19:01.984Z,13.28
2022-09-20T17:21:31.220Z,13.23
2022-09-20T17:24:00.676Z,13.19
2022-09-20T17:26:31.454Z,13.14
2022-09-20T17:29:02.192Z,13.17
2022-09-20T17:31:33.697Z,13.06
2022-09-20T17:34:02.400Z,13.02
2022-09-20T17:36:32.205Z,13.04
2022-09-20T17:39:04.206Z,12.98
2022-09-20T17:41:33.743Z,12.94
2022-09-20T17:44:08.028Z,12.84
2022-09-20T17:46:37.361Z,12.75
2022-09-20T17:49:07.409Z,12.72
2022-09-20T17:51:37.025Z,12.63
2022-09-20T17:54:05.289Z,12.57
2022-09-20T17:56:33.509Z,12.55
2022-09-20T17:59:04.116Z,12.45
2022-09-20T18:01:33.566Z,12.42
2022-09-20T18:04:04.033Z,12.42
2022-09-20T18:06:33.721Z,12.38
2022-09-20T18:09:02.743Z,12.36
2022-09-20T18:11:32.729Z,12.31
2022-09-20T18:14:02.625Z,12.24
2022-09-20T18:16:31.030Z,12.20
2022-09-20T18:18:59.844Z,12.14
2022-09-20T18:21:28.939Z,12.10
2022-09-20T18:23:57.344Z,12.09
2022-09-20T18:26:27.014Z,12.03
2022-09-20T18:28:57.554Z,11.94
2022-09-20T18:31:29.939Z,11.98
2022-09-20T18:33:59.715Z,11.96
2022-09-20T18:36:28.274Z,11.96
2022-09-20T18:38:57.585Z,11.98
2022-09-20T18:41:27.033Z,11.84
2022-09-20T18:43:56.035Z,11.83
2022-09-20T18:46:27.446Z,11.78
2022-09-20T18:48:58.278Z,11.75
2022-09-20T18:51:28.827Z,11.76
2022-09-20T18:53:57.093Z,11.72
2022-09-20T18:56:27.511Z,11.71
2022-09-20T18:58:58.214Z,11.64
2022-09-20T19:02:04.796Z,11.64
2022-09-20T19:05:08.533Z,11.57
2022-09-20T19:07:45.117Z,11.58
2022-09-20T19:10:22.771Z,11.52
2022-09-20T19:12:56.034Z,11.46
2022-09-20T19:15:51.683Z,11.39
2022-09-20T19:18:29.506Z,11.27
2022-09-20T19:21:03.044Z,11.19
2022-09-20T19:23:41.218Z,11.13
2022-09-20T19:26:14.028Z,11.10
2022-09-20T19:28:45.486Z,11.10
2022-09-20T19:31:21.230Z,11.06
2022-09-20T19:33:49.726Z,11.01
2022-09-20T19:36:21.942Z,10.92
2022-09-20T19:38:59.261Z,10.93
2022-09-20T19:41:34.151Z,10.94
2022-09-20T19:44:14.367Z,10.94
2022-09-20T19:46:50.385Z,10.97
2022-09-20T19:49:22.237Z,11.01
2022-09-20T19:51:53.706Z,10.94
2022-09-20T19:54:22.074Z,10.97
2022-09-20T19:56:54.867Z,10.95
2022-09-20T19:59:24.148Z,10.94
2022-09-20T20:01:52.589Z,10.88
2022-09-20T20:04:21.018Z,10.92
2022-09-20T20:06:57.982Z,10.90
2022-09-20T20:09:33.365Z,10.88
2022-09-20T20:12:05.759Z,10.89
2022-09-20T20:14:40.173Z,10.85
2022-09-20T20:17:20.725Z,10.82
2022-09-20T20:19:58.258Z,10.82
2022-09-20T20:22:38.168Z,10.85
2022-09-20T20:25:11.743Z,10.80
2022-09-20T20:27:41.748Z,10.74
2022-09-20T20:30:11.889Z,10.70
2022-09-20T20:32:40.507Z,10.70
2022-09-20T20:35:11.948Z,10.67
2022-09-20T20:37:41.171Z,10.65
2022-09-20T20:40:12.267Z,10.59
2022-09-20T20:42:40.274Z,10.54
2022-09-20T20:45:09.019Z,10.43
2022-09-20T20:47:37.157Z,10.34
2022-09-20T20:50:06.276Z,10.27
2022-09-20T20:52:34.572Z,10.24
2022-09-20T20:55:03.876Z,10.24
2022-09-20T20:57:32.034Z,10.30
2022-09-20T21:00:00.837Z,10.25
2022-09-20T21:02:28.690Z,10.26
2022-09-20T21:04:56.529Z,10.26
2022-09-20T21:07:24.868Z,10.18
2022-09-20T21:09:52.896Z,10.18
2022-09-20T21:12:22.361Z,10.15
2022-09-20T21:14:50.417Z,10.19
2022-09-20T21:17:18.577Z,10.16
2022-09-20T21:19:46.900Z,10.09
2022-09-20T21:22:15.143Z,9.99
2022-09-20T21:24:43.145Z,9.91
2022-09-20T21:27:11.661Z,9.89
2022-09-20T21:29:40.831Z,9.90
2022-09-20T21:32:08.846Z,9.92
2022-09-20T21:34:36.930Z,9.89
2022-09-20T21:37:04.813Z,9.89
2022-09-20T21:39:32.972Z,9.87
2022-09-20T21:42:00.726Z,9.84
2022-09-20T21:44:28.740Z,9.71
2022-09-20T21:46:58.185Z,9.64
2022-09-20T21:49:26.239Z,9.63
2022-09-20T21:51:54.244Z,9.53
2022-09-20T21:54:22.151Z,9.41
2022-09-20T21:56:50.557Z,9.33
2022-09-20T21:59:18.651Z,9.25
2022-09-20T22:01:46.587Z,9.20
2022-09-20T22:04:15.834Z,9.14
2022-09-20T22:06:44.375Z,9.07
2022-09-20T22:09:14.092Z,8.98
2022-09-20T22:11:43.685Z,8.92
2022-09-20T22:14:12.183Z,8.84
2022-09-20T22:16:41.193Z,8.82
2022-09-20T22:19:11.351Z,8.85
2022-09-20T22:21:42.068Z,8.90
2022-09-20T22:24:11.537Z,8.95
2022-09-20T22:26:40.874Z,8.96
2022-09-20T22:29:09.537Z,8.99
2022-09-20T22:31:41.396Z,9.01
2022-09-20T22:34:09.180Z,9.04
2022-09-20T22:36:38.600Z,9.07
2022-09-20T22:39:10.559Z,9.12
2022-09-20T22:41:39.366Z,9.19
2022-09-20T22:44:07.228Z,9.26
2022-09-20T22:46:35.822Z,9.26
2022-09-20T22:49:05.552Z,9.24
2022-09-20T22:51:34.396Z,9.25
2022-09-20T22:54:06.528Z,9.28
2022-09-20T22:56:36.600Z,9.25
2022-09-20T22:59:06.087Z,9.21
2022-09-20T23:01:35.376Z,9.05
2022-09-20T23:04:06.287Z,9.08
2022-09-20T23:06:36.211Z,9.07
2022-09-20T23:09:06.341Z,9.06
2022-09-20T23:11:36.447Z,9.04
2022-09-20T23:14:06.018Z,9.03
2022-09-20T23:16:35.975Z,8.96
2022-09-20T23:19:05.854Z,8.95
2022-09-20T23:21:34.238Z,8.97
2022-09-20T23:24:03.769Z,8.97
2022-09-20T23:26:33.773Z,8.97
2022-09-20T23:29:04.945Z,8.91
2022-09-20T23:31:34.823Z,8.88
2022-09-20T23:34:04.268Z,8.88
2022-09-20T23:36:34.505Z,8.91
2022-09-20T23:39:02.659Z,8.92
2022-09-20T23:41:30.773Z,8.92
2022-09-20T23:43:58.853Z,8.90
2022-09-20T23:46:28.398Z,8.91
2022-09-20T23:48:56.307Z,8.80
2022-09-20T23:51:25.771Z,8.83
2022-09-20T23:53:56.078Z,8.83
2022-09-20T23:56:24.200Z,8.82
2022-09-20T23:58:52.314Z,8.81
